Silia — WDG2034 — position and weather

sailwx.info

Track history (hours):
 
Tides and Currents Weather Stations Pressure Air Temp Water Temp Dewpoint Dewpoint Depression Visibility Wind Speed Wind Dir Waves Ship Positions

Silia

Owner: greger pacific marine, napa, CA. More information available from US FCC via Universal Licensing System and Coast Guard Vessel Documentation Center.

Last reported at 2015-Sep-02 01:33 UTC. Time now 2015-Sep-02 04:25 UTC.
Position N 37°40' W 122°22'.

Length 17 m; draft 3 m.

Type: Tug. MMSI: 367511460.

Date/timePositionNaut miles runAvg speedWind from/ knotsBaromVisibWave heightAir tempDewpointWater temp
2015-Sep-02 01:33N 37°40' W 122°22'0 0.3
2015-Sep-02 00:33N 37°40' W 122°23'0 0.0
2015-Sep-01 23:33N 37°40' W 122°23'0 0.0
2015-Sep-01 22:33N 37°40' W 122°23'0 0.0
2015-Sep-01 21:34N 37°40' W 122°23'0 0.4
2015-Sep-01 20:33N 37°40' W 122°22'5 5.5
2015-Sep-01 19:34N 37°46' W 122°22'4 3.9
2015-Sep-01 18:33N 37°49' W 122°25'2 1.9
2015-Sep-01 17:33N 37°48' W 122°23'3 2.9
2015-Sep-01 16:33N 37°45' W 122°22'4 4.0
2015-Sep-01 15:33N 37°41' W 122°22'1 1.0
2015-Sep-01 14:33N 37°40' W 122°23'0 0.0
2015-Aug-31 23:34N 37°40' W 122°23'1 0.7
2015-Aug-31 22:34N 37°41' W 122°22'1 0.8
2015-Aug-31 21:34N 37°40' W 122°23'0 0.0
2015-Aug-31 20:33N 37°40' W 122°23'0 0.0
2015-Aug-31 19:34N 37°40' W 122°23'1 0.8
2015-Aug-31 18:34N 37°41' W 122°22'1 0.8
2015-Aug-31 17:34N 37°40' W 122°23'0 0.0
2015-Aug-31 16:33N 37°40' W 122°23'0 0.0
2015-Aug-31 15:34N 37°40' W 122°23'0 0.2
2015-Aug-31 14:34N 37°40' W 122°23'0 0.0
2015-Aug-30 02:07N 37°40' W 122°23'0 0.1
2015-Aug-30 01:33N 37°40' W 122°23'0 0.0
2015-Aug-30 00:33N 37°40' W 122°23'0 0.0
2015-Aug-29 23:33N 37°40' W 122°23'0 0.1
2015-Aug-29 22:33N 37°40' W 122°23'0 0.0
2015-Aug-29 21:33N 37°40' W 122°23'0 0.0
2015-Aug-29 20:33N 37°40' W 122°23'0 0.0
2015-Aug-29 19:33N 37°40' W 122°23'0 0.0
2015-Aug-29 18:33N 37°40' W 122°23'0 0.1
2015-Aug-29 17:33N 37°40' W 122°23'0 0.1
2015-Aug-29 16:33N 37°40' W 122°23'0 0.0
2015-Aug-29 15:33N 37°40' W 122°23'1 0.0
2015-Aug-29 02:33N 37°40' W 122°22'4 4.3
2015-Aug-29 01:33N 37°45' W 122°22'5 5.3
2015-Aug-29 00:33N 37°49' W 122°25'4 3.9
2015-Aug-28 23:33N 37°46' W 122°22'5 5.1
2015-Aug-28 22:33N 37°41' W 122°22'1 1.0
2015-Aug-28 21:33N 37°40' W 122°23'0 0.0
2015-Aug-28 20:33N 37°40' W 122°23'2 2.3
2015-Aug-28 19:33N 37°42' W 122°21'7 6.7
2015-Aug-28 18:33N 37°49' W 122°24'1 1.4
2015-Aug-28 17:33N 37°47' W 122°23'4 3.7
2015-Aug-28 16:33N 37°44' W 122°21'3 3.4
2015-Aug-28 15:33N 37°41' W 122°22'1 0.7
2015-Aug-28 14:33N 37°40' W 122°23'1 0.1
2015-Aug-28 02:33N 37°41' W 122°22'6 6.1
2015-Aug-28 01:34N 37°47' W 122°23'3 2.6
2015-Aug-28 00:33N 37°49' W 122°24'4 4.0
2015-Aug-27 23:33N 37°45' W 122°22'5 4.6
2015-Aug-27 22:34N 37°41' W 122°22'0 0.4
2015-Aug-27 21:33N 37°40' W 122°22'7 7.2
2015-Aug-27 20:33N 37°48' W 122°23'7 6.7
2015-Aug-27 19:33N 37°54' W 122°22'1 0.2
2015-Aug-27 13:33N 37°55' W 122°22'0 0.0
2015-Aug-27 03:33N 37°55' W 122°22'0 0.0
2015-Aug-27 02:33N 37°55' W 122°22'0 0.0
2015-Aug-27 01:33N 37°55' W 122°22'0 0.0
2015-Aug-27 00:34N 37°55' W 122°22'0 0.3
2015-Aug-26 23:34N 37°55' W 122°22'5 4.8
2015-Aug-26 22:33N 37°50' W 122°23'8 7.9
2015-Aug-26 21:33N 37°43' W 122°21'3 2.6
2015-Aug-26 20:33N 37°40' W 122°23'0 0.0
2015-Aug-26 19:33N 37°40' W 122°23'0 0.0
2015-Aug-26 18:33N 37°40' W 122°23'0 0.0
2015-Aug-26 17:33N 37°40' W 122°23'0 0.0
2015-Aug-26 16:33N 37°40' W 122°23'0 0.0
2015-Aug-26 15:33N 37°40' W 122°23'0 0.0
2015-Aug-26 14:33N 37°40' W 122°23'0 0.0
2015-Aug-26 00:33N 37°40' W 122°23'0 0.2
2015-Aug-25 23:33N 37°40' W 122°23'0 0.2
2015-Aug-25 22:33N 37°40' W 122°23'0 0.0
2015-Aug-25 21:34N 37°40' W 122°23'0 0.1
2015-Aug-25 20:33N 37°40' W 122°23'5 4.5
2015-Aug-25 19:33N 37°45' W 122°22'5 5.2
2015-Aug-25 18:33N 37°49' W 122°26'6 6.0
2015-Aug-25 17:33N 37°44' W 122°22'4 3.9
2015-Aug-25 16:34N 37°40' W 122°23'1 0.8
2015-Aug-25 15:33N 37°41' W 122°22'0 0.3
2015-Aug-25 14:33N 37°40' W 122°22'1 0.6
2015-Aug-25 13:33N 37°40' W 122°23'0 0.0
2015-Aug-25 12:33N 37°40' W 122°23'0 0.0
2015-Aug-25 11:33N 37°40' W 122°23'0 0.0
2015-Aug-25 10:33N 37°40' W 122°23'0 0.0
2015-Aug-25 09:33N 37°40' W 122°23'0 0.0
2015-Aug-25 08:33N 37°40' W 122°23'0 0.0
2015-Aug-25 07:33N 37°40' W 122°23'0 0.0
2015-Aug-25 06:33N 37°40' W 122°23'0 0.0
2015-Aug-25 05:33N 37°40' W 122°23'0 0.0
2015-Aug-25 04:33N 37°40' W 122°23'0 0.0
2015-Aug-25 03:33N 37°40' W 122°23'0 0.0
2015-Aug-25 02:33N 37°40' W 122°23'1 0.7
2015-Aug-25 01:34N 37°41' W 122°22'3 3.2
2015-Aug-25 00:33N 37°44' W 122°21'6 5.7
2015-Aug-24 23:34N 37°49' W 122°25'0 0.0
2015-Aug-24 22:34N 37°49' W 122°25'1 1.0
2015-Aug-24 21:33N 37°48' W 122°24'1 1.4
2015-Aug-24 20:33N 37°47' W 122°23'5 5.3
2015-Aug-24 19:33N 37°42' W 122°22'1 1.4
2015-Aug-24 18:33N 37°41' W 122°22'5 5.1
2015-Aug-24 17:33N 37°46' W 122°22'4 3.6
2015-Aug-24 16:34N 37°49' W 122°24'6 5.7
2015-Aug-24 15:34N 37°44' W 122°21'4 3.5
2015-Aug-24 14:33N 37°40' W 122°23'0 0.1
2015-Aug-24 13:33N 37°40' W 122°23'0 0.0
2015-Aug-24 12:33N 37°40' W 122°23'0 0.0
2015-Aug-24 11:33N 37°40' W 122°23'0 0.0
2015-Aug-24 10:33N 37°40' W 122°23'0 0.0
2015-Aug-24 09:33N 37°40' W 122°23'0 0.0
2015-Aug-24 08:33N 37°40' W 122°23'0 0.0
2015-Aug-24 07:33N 37°40' W 122°23'0 0.0
2015-Aug-24 06:33N 37°40' W 122°23'0 0.0
2015-Aug-24 05:33N 37°40' W 122°23'0 0.0
2015-Aug-24 04:33N 37°40' W 122°23'0 0.0
2015-Aug-24 03:33N 37°40' W 122°23'2 1.5
2015-Aug-24 02:33N 37°42' W 122°22'6 5.6
2015-Aug-24 01:34N 37°47' W 122°23'1 1.5
2015-Aug-24 00:33N 37°48' W 122°24'4 4.0
2015-Aug-23 23:33N 37°45' W 122°22'3 3.4
2015-Aug-23 22:33N 37°41' W 122°22'1 1.1
2015-Aug-23 21:33N 37°40' W 122°23'1 0.8
2015-Aug-23 20:33N 37°41' W 122°22'1 0.8
2015-Aug-23 19:33N 37°40' W 122°23'1 0.8
2015-Aug-23 18:33N 37°41' W 122°22'1 0.8
2015-Aug-23 17:33N 37°40' W 122°23'0 0.0
2015-Aug-23 16:33N 37°40' W 122°23'0 0.0
2015-Aug-23 15:34N 37°40' W 122°23'0 0.0
2015-Aug-23 14:33N 37°40' W 122°23'0 0.0
2015-Aug-23 13:33N 37°40' W 122°23'0 0.0
2015-Aug-23 12:33N 37°40' W 122°23'0 0.0
2015-Aug-23 11:33N 37°40' W 122°23'0 0.0
2015-Aug-23 10:34N 37°40' W 122°23'0 0.0
2015-Aug-23 09:33N 37°40' W 122°23'0 0.0
2015-Aug-23 08:34N 37°40' W 122°23'0 0.0
2015-Aug-23 07:33N 37°40' W 122°23'0 0.0
2015-Aug-23 06:33N 37°40' W 122°23'0 0.0
2015-Aug-23 05:33N 37°40' W 122°23'0 0.0
2015-Aug-23 04:33N 37°40' W 122°23'0 0.0
2015-Aug-23 03:33N 37°40' W 122°23'1 0.8
2015-Aug-23 02:33N 37°41' W 122°22'6 6.0
2015-Aug-23 01:33N 37°47' W 122°23'  
Track history (hours):
 
Tides and Currents Weather Stations Pressure Air Temp Water Temp Dewpoint Dewpoint Depression Visibility Wind Speed Wind Dir Waves Ship Positions

Silia

Owner: greger pacific marine, napa, CA. More information available from US FCC via Universal Licensing System and Coast Guard Vessel Documentation Center.

Last reported at 2015-Sep-02 01:33 UTC. Time now 2015-Sep-02 04:25 UTC.
Position N 37°40' W 122°22'.

Length 17 m; draft 3 m.

Type: Tug. MMSI: 367511460.

Date/timePositionNaut miles runAvg speedWind from/ knotsBaromVisibWave heightAir tempDewpointWater temp
2015-Sep-02 01:33N 37°40' W 122°22'0 0.3
2015-Sep-02 00:33N 37°40' W 122°23'0 0.0
2015-Sep-01 23:33N 37°40' W 122°23'0 0.0
2015-Sep-01 22:33N 37°40' W 122°23'0 0.0
2015-Sep-01 21:34N 37°40' W 122°23'0 0.4
2015-Sep-01 20:33N 37°40' W 122°22'5 5.5
2015-Sep-01 19:34N 37°46' W 122°22'4 3.9
2015-Sep-01 18:33N 37°49' W 122°25'2 1.9
2015-Sep-01 17:33N 37°48' W 122°23'3 2.9
2015-Sep-01 16:33N 37°45' W 122°22'4 4.0
2015-Sep-01 15:33N 37°41' W 122°22'1 1.0
2015-Sep-01 14:33N 37°40' W 122°23'0 0.0
2015-Aug-31 23:34N 37°40' W 122°23'1 0.7
2015-Aug-31 22:34N 37°41' W 122°22'1 0.8
2015-Aug-31 21:34N 37°40' W 122°23'0 0.0
2015-Aug-31 20:33N 37°40' W 122°23'0 0.0
2015-Aug-31 19:34N 37°40' W 122°23'1 0.8
2015-Aug-31 18:34N 37°41' W 122°22'1 0.8
2015-Aug-31 17:34N 37°40' W 122°23'0 0.0
2015-Aug-31 16:33N 37°40' W 122°23'0 0.0
2015-Aug-31 15:34N 37°40' W 122°23'0 0.2
2015-Aug-31 14:34N 37°40' W 122°23'0 0.0
2015-Aug-30 02:07N 37°40' W 122°23'0 0.1
2015-Aug-30 01:33N 37°40' W 122°23'0 0.0
2015-Aug-30 00:33N 37°40' W 122°23'0 0.0
2015-Aug-29 23:33N 37°40' W 122°23'0 0.1
2015-Aug-29 22:33N 37°40' W 122°23'0 0.0
2015-Aug-29 21:33N 37°40' W 122°23'0 0.0
2015-Aug-29 20:33N 37°40' W 122°23'0 0.0
2015-Aug-29 19:33N 37°40' W 122°23'0 0.0
2015-Aug-29 18:33N 37°40' W 122°23'0 0.1
2015-Aug-29 17:33N 37°40' W 122°23'0 0.1
2015-Aug-29 16:33N 37°40' W 122°23'0 0.0
2015-Aug-29 15:33N 37°40' W 122°23'1 0.0
2015-Aug-29 02:33N 37°40' W 122°22'4 4.3
2015-Aug-29 01:33N 37°45' W 122°22'5 5.3
2015-Aug-29 00:33N 37°49' W 122°25'4 3.9
2015-Aug-28 23:33N 37°46' W 122°22'5 5.1
2015-Aug-28 22:33N 37°41' W 122°22'1 1.0
2015-Aug-28 21:33N 37°40' W 122°23'0 0.0
2015-Aug-28 20:33N 37°40' W 122°23'2 2.3
2015-Aug-28 19:33N 37°42' W 122°21'7 6.7
2015-Aug-28 18:33N 37°49' W 122°24'1 1.4
2015-Aug-28 17:33N 37°47' W 122°23'4 3.7
2015-Aug-28 16:33N 37°44' W 122°21'3 3.4
2015-Aug-28 15:33N 37°41' W 122°22'1 0.7
2015-Aug-28 14:33N 37°40' W 122°23'1 0.1
2015-Aug-28 02:33N 37°41' W 122°22'6 6.1
2015-Aug-28 01:34N 37°47' W 122°23'3 2.6
2015-Aug-28 00:33N 37°49' W 122°24'4 4.0
2015-Aug-27 23:33N 37°45' W 122°22'5 4.6
2015-Aug-27 22:34N 37°41' W 122°22'0 0.4
2015-Aug-27 21:33N 37°40' W 122°22'7 7.2
2015-Aug-27 20:33N 37°48' W 122°23'7 6.7
2015-Aug-27 19:33N 37°54' W 122°22'1 0.2
2015-Aug-27 13:33N 37°55' W 122°22'0 0.0
2015-Aug-27 03:33N 37°55' W 122°22'0 0.0
2015-Aug-27 02:33N 37°55' W 122°22'0 0.0
2015-Aug-27 01:33N 37°55' W 122°22'0 0.0
2015-Aug-27 00:34N 37°55' W 122°22'0 0.3
2015-Aug-26 23:34N 37°55' W 122°22'5 4.8
2015-Aug-26 22:33N 37°50' W 122°23'8 7.9
2015-Aug-26 21:33N 37°43' W 122°21'3 2.6
2015-Aug-26 20:33N 37°40' W 122°23'0 0.0
2015-Aug-26 19:33N 37°40' W 122°23'0 0.0
2015-Aug-26 18:33N 37°40' W 122°23'0 0.0
2015-Aug-26 17:33N 37°40' W 122°23'0 0.0
2015-Aug-26 16:33N 37°40' W 122°23'0 0.0
2015-Aug-26 15:33N 37°40' W 122°23'0 0.0
2015-Aug-26 14:33N 37°40' W 122°23'0 0.0
2015-Aug-26 00:33N 37°40' W 122°23'0 0.2
2015-Aug-25 23:33N 37°40' W 122°23'0 0.2
2015-Aug-25 22:33N 37°40' W 122°23'0 0.0
2015-Aug-25 21:34N 37°40' W 122°23'0 0.1
2015-Aug-25 20:33N 37°40' W 122°23'5 4.5
2015-Aug-25 19:33N 37°45' W 122°22'5 5.2
2015-Aug-25 18:33N 37°49' W 122°26'6 6.0
2015-Aug-25 17:33N 37°44' W 122°22'4 3.9
2015-Aug-25 16:34N 37°40' W 122°23'1 0.8
2015-Aug-25 15:33N 37°41' W 122°22'0 0.3
2015-Aug-25 14:33N 37°40' W 122°22'1 0.6
2015-Aug-25 13:33N 37°40' W 122°23'0 0.0
2015-Aug-25 12:33N 37°40' W 122°23'0 0.0
2015-Aug-25 11:33N 37°40' W 122°23'0 0.0
2015-Aug-25 10:33N 37°40' W 122°23'0 0.0
2015-Aug-25 09:33N 37°40' W 122°23'0 0.0
2015-Aug-25 08:33N 37°40' W 122°23'0 0.0
2015-Aug-25 07:33N 37°40' W 122°23'0 0.0
2015-Aug-25 06:33N 37°40' W 122°23'0 0.0
2015-Aug-25 05:33N 37°40' W 122°23'0 0.0
2015-Aug-25 04:33N 37°40' W 122°23'0 0.0
2015-Aug-25 03:33N 37°40' W 122°23'0 0.0
2015-Aug-25 02:33N 37°40' W 122°23'1 0.7
2015-Aug-25 01:34N 37°41' W 122°22'3 3.2
2015-Aug-25 00:33N 37°44' W 122°21'6 5.7
2015-Aug-24 23:34N 37°49' W 122°25'0 0.0
2015-Aug-24 22:34N 37°49' W 122°25'1 1.0
2015-Aug-24 21:33N 37°48' W 122°24'1 1.4
2015-Aug-24 20:33N 37°47' W 122°23'5 5.3
2015-Aug-24 19:33N 37°42' W 122°22'1 1.4
2015-Aug-24 18:33N 37°41' W 122°22'5 5.1
2015-Aug-24 17:33N 37°46' W 122°22'4 3.6
2015-Aug-24 16:34N 37°49' W 122°24'6 5.7
2015-Aug-24 15:34N 37°44' W 122°21'4 3.5
2015-Aug-24 14:33N 37°40' W 122°23'0 0.1
2015-Aug-24 13:33N 37°40' W 122°23'0 0.0
2015-Aug-24 12:33N 37°40' W 122°23'0 0.0
2015-Aug-24 11:33N 37°40' W 122°23'0 0.0
2015-Aug-24 10:33N 37°40' W 122°23'0 0.0
2015-Aug-24 09:33N 37°40' W 122°23'0 0.0
2015-Aug-24 08:33N 37°40' W 122°23'0 0.0
2015-Aug-24 07:33N 37°40' W 122°23'0 0.0
2015-Aug-24 06:33N 37°40' W 122°23'0 0.0
2015-Aug-24 05:33N 37°40' W 122°23'0 0.0
2015-Aug-24 04:33N 37°40' W 122°23'0 0.0
2015-Aug-24 03:33N 37°40' W 122°23'2 1.5
2015-Aug-24 02:33N 37°42' W 122°22'6 5.6
2015-Aug-24 01:34N 37°47' W 122°23'1 1.5
2015-Aug-24 00:33N 37°48' W 122°24'4 4.0
2015-Aug-23 23:33N 37°45' W 122°22'3 3.4
2015-Aug-23 22:33N 37°41' W 122°22'1 1.1
2015-Aug-23 21:33N 37°40' W 122°23'1 0.8
2015-Aug-23 20:33N 37°41' W 122°22'1 0.8
2015-Aug-23 19:33N 37°40' W 122°23'1 0.8
2015-Aug-23 18:33N 37°41' W 122°22'1 0.8
2015-Aug-23 17:33N 37°40' W 122°23'0 0.0
2015-Aug-23 16:33N 37°40' W 122°23'0 0.0
2015-Aug-23 15:34N 37°40' W 122°23'0 0.0
2015-Aug-23 14:33N 37°40' W 122°23'0 0.0
2015-Aug-23 13:33N 37°40' W 122°23'0 0.0
2015-Aug-23 12:33N 37°40' W 122°23'0 0.0
2015-Aug-23 11:33N 37°40' W 122°23'0 0.0
2015-Aug-23 10:34N 37°40' W 122°23'0 0.0
2015-Aug-23 09:33N 37°40' W 122°23'0 0.0
2015-Aug-23 08:34N 37°40' W 122°23'0 0.0
2015-Aug-23 07:33N 37°40' W 122°23'0 0.0
2015-Aug-23 06:33N 37°40' W 122°23'0 0.0
2015-Aug-23 05:33N 37°40' W 122°23'0 0.0
2015-Aug-23 04:33N 37°40' W 122°23'0 0.0
2015-Aug-23 03:33N 37°40' W 122°23'1 0.8
2015-Aug-23 02:33N 37°41' W 122°22'6 6.0
2015-Aug-23 01:33N 37°47' W 122°23'  

Dump ship's entire track history